メインページ
METAR-TAF:

METAR-TAF

空港 :

ハイファ空港

ハイファ, イスラエル

緯度: 32-48N, 経度: 035-02E, 海抜: 8m

現時点の気象観測

当レポートは1時間9分前の10:50(UTC)に作成
南西の風 12kt、最大22ktの突風を伴う
気温 22°C
湿度 50%
気圧 1017 hPa
視程10km以上
高度4500ftの雲は散在している

METAR: LLHA 121050Z 23012G22KT 9999 SCT045 22/11 Q1017

時間: 13:59 (11:59 UTC)

予報

当レポートは53分前の11:06(UTC)に作成
予報は12日の 12時(UTC)から 13日の 12時(UTC)まで有効
南西の風 15kt、最大25ktの突風を伴う
視程10km以上
高度3500ftの雲は散在している
12日の 12時(UTC)から 12日の 15時(UTC)まで一時的に
南西の風 16kt
視程: 5000m
高度2000ftの雲はほとんどない, 積乱雲.
高度2500ftの千切れ雲あり
激しい雷雨, 雨
12日の 1500時(UTC)から
西/北西の風 12kt
視程10km以上
高度3000ftの雲は散在している
12日の 15時(UTC)から 12日の 17時(UTC)まで一時的に
視程: 8000m
高度2500ftの千切れ雲あり
13日の 07時(UTC)から 13日の 09時(UTC)まで徐々に
高度4500ftの雲は散在している

TAF: LLHA 121106Z 1212/1312 23015G25KT 9999 SCT035 TEMPO 1212/1215 23016KT 5000 TSRA FEW020CB BKN025 FM121500 29012KT 9999 SCT030 TEMPO 1215/1217 8000 RA BKN025 BECMG 1307/1309 SCT045 TX21/1212Z TN16/1304Z

4,000以上の空港の気象観測と天気予報(METAR報とTAF報)

利用可能な観測所は地図上に黄色い丸と赤い丸で示す。

丸の上にカーソルを重ねると観測所名を参照できる。

次にクリックすると気象観測と天気予報を参照できる。

マップの切り替え:黒色「×」印の緑ボタンをクリックして拡大、「-」印の緑ボタンをクリックして縮小、緑色の三角印をクリックして隣りの地図に切り替え


METAR-TAF: